Time;durP1;ratioP1;P1;durP2;ratioP2;P2;SDS_P1;SDS_P2;PMS_P1;PMS_P2;Temp;Humidity;BMP_temperature;BMP_pressure;BME280_temperature;BME280_humidity;BME280_pressure;Samples;Min_cycle;Max_cycle;Signal;HPM_P1;HPM_P2
2022/02/10 14:10:21;;;;;;;6.95;3.42;;;;;;;14.45;40.78;97809.19;5079351;27;20395;-59
2022/02/10 14:17:50;;;;;;;4.97;2.50;;;;;;;13.65;42.48;97807.53;5080170;28;20060;-63
2022/02/10 14:20:55;;;;;;;2.83;1.75;;;;;;;13.19;42.67;97808.69;5080291;28;20048;-56
2022/02/10 14:28:31;;;;;;;3.63;1.85;;;;;;;13.17;42.69;97802.69;5079783;28;20061;-68
2022/02/10 14:30:58;;;;;;;5.05;2.08;;;;;;;11.83;42.78;97617.69;5094629;28;20059;-62
2022/02/10 14:33:31;;;;;;;4.25;2.53;;;;;;;13.10;42.97;97810.09;5077518;28;20506;-57
2022/02/10 14:36:14;;;;;;;4.57;2.42;;;;;;;13.16;43.15;97803.03;5077767;28;20048;-64
2022/02/10 15:53:17;;;;;;;99.70;41.55;;;;;;;9.18;53.86;97724.34;5089669;28;20088;-55
2022/02/10 16:17:34;;;;;;;162.57;57.08;;;;;;;5.99;57.68;97443.03;5101502;28;20351;-69
2022/02/10 16:20:07;;;;;;;162.55;56.10;;;;;;;8.17;58.94;97820.84;5100343;28;20238;-56
2022/02/10 16:22:48;;;;;;;164.60;57.35;;;;;;;7.92;60.74;97830.13;5100987;28;20050;-56
2022/02/10 16:25:17;;;;;;;138.40;53.67;;;;;;;7.63;60.18;97790.34;5100547;28;20054;-70
2022/02/10 16:27:50;;;;;;;135.60;48.30;;;;;;;7.86;60.76;97839.69;5100565;28;20434;-57
2022/02/10 16:30:19;;;;;;;100.57;42.00;;;;;;;7.29;61.01;97757.47;5100088;28;20513;-70
2022/02/10 16:32:50;;;;;;;;;;;;;;;7.74;61.29;97830.19;5101152;28;20128;-69
2022/02/10 16:35:25;;;;;;;74.65;34.95;;;;;;;7.53;62.37;97829.34;5100551;28;19931;-56
2022/02/10 16:37:57;;;;;;;74.95;34.05;;;;;;;5.97;62.77;97610.28;5099242;28;20555;-70
2022/02/10 16:40:29;;;;;;;75.70;35.70;;;;;;;7.32;63.29;97839.47;5100424;28;20052;-69
2022/02/10 16:43:00;;;;;;;68.38;35.47;;;;;;;7.25;64.88;97841.13;5101059;28;20388;-56
2022/02/10 16:45:27;;;;;;;78.20;37.63;;;;;;;7.02;64.70;97814.94;5098817;28;20502;-68
2022/02/10 16:47:55;;;;;;;87.15;45.85;;;;;;;7.29;63.90;97853.91;5099857;28;20060;-69
2022/02/10 16:50:26;;;;;;;79.95;41.97;;;;;;;7.19;65.32;97851.50;5099980;28;20056;-57
2022/02/10 16:53:06;;;;;;;83.10;42.97;;;;;;;6.65;65.94;97769.69;5100266;28;20052;-68
2022/02/10 16:55:56;;;;;;;98.45;44.75;;;;;;;6.44;65.16;97756.94;5098651;28;20520;-56
2022/02/10 16:58:38;;;;;;;99.18;45.75;;;;;;;6.98;66.16;97858.06;5090638;28;20529;-57
2022/02/10 17:28:51;;;;;;;225.13;88.20;;;;;;;6.32;70.78;97867.66;5106180;28;20066;-69
2022/02/10 17:36:32;;;;;;;113.10;46.72;;;;;;;6.05;70.93;97866.00;5106781;28;20487;-70
2022/02/10 17:52:20;;;;;;;70.93;31.65;;;;;;;5.26;73.05;97836.97;5105490;28;20061;-63
2022/02/10 17:54:48;;;;;;;63.30;31.23;;;;;;;5.58;72.94;97894.28;5105967;28;20059;-59
2022/02/10 17:57:16;;;;;;;66.20;30.40;;;;;;;5.48;73.97;97882.78;5106400;28;20078;-63
2022/02/10 17:59:43;;;;;;;69.18;31.63;;;;;;;5.05;74.67;97843.31;5102123;28;20130;-63
2022/02/10 18:02:11;;;;;;;60.90;29.38;;;;;;;5.40;74.29;97897.28;5085548;28;20068;-63
2022/02/10 18:04:38;;;;;;;61.03;29.48;;;;;;;5.32;74.27;97900.78;5085320;28;20423;-63
2022/02/10 18:07:07;;;;;;;64.97;27.30;;;;;;;4.81;74.13;97812.66;5083815;28;20490;-56
2022/02/10 18:17:41;;;;;;;47.97;20.90;;;;;;;4.64;74.94;97841.63;5085514;28;20088;-63
2022/02/10 18:20:14;;;;;;;59.28;25.70;;;;;;;4.52;75.68;97866.06;5085224;28;20078;-63
2022/02/10 18:23:03;;;;;;;63.27;29.40;;;;;;;4.77;76.17;97907.72;5085178;28;20047;-63
2022/02/10 18:30:25;;;;;;;57.80;26.77;;;;;;;4.28;77.73;97890.22;5084247;28;20052;-55
2022/02/10 18:33:32;;;;;;;56.55;25.73;;;;;;;4.35;77.86;97896.09;5085006;28;20055;-56
2022/02/10 19:06:27;;;;;;;30.33;15.02;;;;;;;3.82;80.46;97914.28;5104710;28;20055;-63
2022/02/10 19:09:09;;;;;;;37.97;16.88;;;;;;;3.70;81.49;97911.22;5104547;28;20047;-58
2022/02/10 19:11:34;;;;;;;75.25;27.88;;;;;;;3.68;81.88;97909.91;5105054;28;20051;-57
2022/02/10 19:14:04;;;;;;;51.58;24.48;;;;;;;3.67;81.21;97900.88;5103696;28;20439;-62
2022/02/10 19:16:31;;;;;;;45.80;18.80;;;;;;;3.60;81.65;97911.44;5104742;28;20060;-58
2022/02/10 19:18:58;;;;;;;38.28;17.85;;;;;;;3.58;81.99;97913.66;5104405;28;20043;-56
2022/02/10 19:21:25;;;;;;;38.60;18.40;;;;;;;3.46;82.64;97913.38;5102185;28;20047;-56
2022/02/10 19:23:52;;;;;;;48.05;20.48;;;;;;;3.49;81.91;97915.50;5104498;28;20047;-63
2022/02/10 19:26:21;;;;;;;54.80;22.65;;;;;;;3.45;82.17;97922.69;5104122;28;20052;-62
2022/02/10 19:28:47;;;;;;;42.38;19.63;;;;;;;3.34;82.63;97921.25;5104393;28;20043;-62
2022/02/10 19:31:19;;;;;;;34.33;17.40;;;;;;;3.28;83.20;97916.97;5104551;28;20051;-56
2022/02/10 19:33:46;;;;;;;34.17;16.88;;;;;;;3.27;83.19;97920.84;5102526;28;20063;-63
2022/02/10 19:36:13;;;;;;;33.13;15.57;;;;;;;2.85;83.48;97858.09;5102594;28;20044;-62
2022/02/10 19:38:39;;;;;;;32.97;15.25;;;;;;;3.12;84.84;97918.38;5104037;28;20051;-56
2022/02/10 19:41:06;;;;;;;39.55;16.77;;;;;;;3.14;84.71;97921.63;5103950;28;20047;-62
2022/02/10 19:43:53;;;;;;;26.17;13.68;;;;;;;2.92;84.83;97891.38;5104029;28;20055;-62
2022/02/10 19:46:20;;;;;;;25.27;13.80;;;;;;;3.07;84.86;97913.81;5103833;28;20059;-63
2022/02/10 19:48:47;;;;;;;29.90;14.93;;;;;;;3.01;84.90;97930.59;5104340;28;20052;-62
2022/02/10 19:51:14;;;;;;;29.75;14.60;;;;;;;2.94;85.32;97911.03;5103995;28;20048;-56
2022/02/10 19:53:41;;;;;;;24.70;12.10;;;;;;;0.92;84.98;97644.88;5104053;28;20054;-55
2022/02/10 19:56:08;;;;;;;24.13;11.52;;;;;;;2.91;85.98;97917.09;5104153;28;20070;-56
2022/02/10 19:58:35;;;;;;;25.25;12.25;;;;;;;2.87;85.74;97905.97;5103612;28;20047;-57
2022/02/10 20:01:02;;;;;;;23.70;11.60;;;;;;;2.51;85.61;97842.00;5089891;28;20818;-55
2022/02/10 20:03:32;;;;;;;23.70;11.45;;;;;;;2.89;85.61;97908.38;5083524;28;20058;-63
2022/02/10 20:06:00;;;;;;;25.33;11.18;;;;;;;2.89;85.83;97902.91;5083610;28;20044;-62
2022/02/10 20:08:28;;;;;;;26.75;12.38;;;;;;;2.29;86.06;97822.69;5083613;28;20147;-63
2022/02/10 20:10:55;;;;;;;27.27;10.57;;;;;;;2.80;86.10;97896.50;5083793;28;20371;-62
2022/02/10 20:13:24;;;;;;;19.55;11.32;;;;;;;2.75;86.38;97902.06;5083460;28;20449;-63
2022/02/10 20:15:51;;;;;;;18.88;10.70;;;;;;;2.54;85.56;97863.31;5083511;28;20079;-57
2022/02/10 20:18:19;;;;;;;21.45;11.68;;;;;;;2.51;85.95;97879.50;5083298;28;20054;-56
2022/02/10 20:20:49;;;;;;;29.98;11.13;;;;;;;2.53;86.91;97889.00;5083219;28;20063;-56
2022/02/10 20:23:17;;;;;;;28.10;13.32;;;;;;;2.28;86.97;97859.34;5081974;28;20048;-63
2022/02/10 20:26:04;;;;;;;27.30;11.82;;;;;;;2.64;87.35;97908.81;5083616;28;20059;-63
2022/02/10 20:28:32;;;;;;;24.20;10.30;;;;;;;2.46;88.56;97893.25;5083724;28;20060;-56
2022/02/10 20:31:01;;;;;;;30.63;12.20;;;;;;;2.49;88.93;97892.63;5083510;28;20075;-57
2022/02/10 20:33:30;;;;;;;30.33;14.48;;;;;;;1.84;89.11;97825.31;5084905;28;20048;-55
2022/02/10 20:35:59;;;;;;;33.85;14.45;;;;;;;2.13;89.65;97858.78;5085557;28;20063;-56
2022/02/10 20:38:28;;;;;;;30.70;13.98;;;;;;;2.05;89.40;97837.56;5086531;28;20058;-58
2022/02/10 20:41:05;;;;;;;35.53;16.58;;;;;;;1.92;89.27;97811.00;5086355;28;20086;-56
2022/02/10 20:43:32;;;;;;;41.63;19.10;;;;;;;2.41;89.36;97891.41;5085044;28;20522;-56
2022/02/10 20:46:03;;;;;;;39.90;18.45;;;;;;;2.31;89.77;97886.09;5087189;28;20098;-61
2022/02/10 20:48:32;;;;;;;38.75;18.10;;;;;;;2.26;90.49;97894.34;5086388;28;20139;-59
2022/02/10 20:50:59;;;;;;;40.83;18.40;;;;;;;2.27;90.46;97889.72;5086245;28;20050;-59
2022/02/10 20:53:29;;;;;;;56.03;21.67;;;;;;;2.26;90.39;97883.41;5086729;28;20086;-56
2022/02/10 20:55:58;;;;;;;39.97;18.13;;;;;;;1.70;90.10;97795.22;5086889;28;20481;-58
2022/02/10 20:58:27;;;;;;;42.45;15.70;;;;;;;2.16;90.71;97885.50;5086798;28;20055;-56
2022/02/10 21:00:58;;;;;;;41.03;15.07;;;;;;;1.78;90.56;97812.84;5098990;28;20051;-59
2022/02/10 21:03:30;;;;;;;35.17;12.02;;;;;;;2.18;90.54;97875.09;5105721;28;20421;-55
2022/02/10 21:10:57;;;;;;;31.75;13.02;;;;;;;1.78;90.61;97807.38;5106975;28;20052;-57
2022/02/10 21:13:24;;;;;;;37.28;13.40;;;;;;;2.04;90.80;97847.69;5107154;28;20052;-56
2022/02/10 21:15:53;;;;;;;23.38;10.43;;;;;;;2.04;91.01;97849.63;5105105;28;20063;-62
2022/02/10 21:18:20;;;;;;;31.20;13.30;;;;;;;2.08;90.46;97864.31;5106744;28;20415;-56
2022/02/10 21:20:48;;;;;;;27.27;12.13;;;;;;;2.03;90.41;97872.56;5106587;28;20043;-56
2022/02/10 21:23:33;;;;;;;17.00;8.75;;;;;;;1.92;91.62;97871.09;5105124;28;20131;-62
2022/02/10 21:26:01;;;;;;;25.90;10.23;;;;;;;1.21;92.99;97779.25;5105141;28;20051;-57
2022/02/10 21:28:35;;;;;;;22.98;11.07;;;;;;;1.78;93.63;97859.28;5105103;28;20062;-57
2022/02/10 21:31:05;;;;;;;26.73;11.93;;;;;;;1.72;93.52;97860.44;5106757;28;20055;-55
2022/02/10 21:38:39;;;;;;;46.05;21.63;;;;;;;1.80;93.17;97863.34;5106489;28;20497;-55
2022/02/10 21:54:39;;;;;;;46.47;17.50;;;;;;;1.71;91.99;97851.44;5105387;28;20055;-63
2022/02/10 22:08:31;;;;;;;30.92;13.27;;;;;;;1.54;92.34;97849.22;5085270;28;20101;-62
2022/02/10 22:10:49;;;;;;;29.75;13.05;;;;;;;1.09;92.71;97778.84;5084927;28;20052;-59
2022/02/10 22:21:18;;;;;;;46.85;14.73;;;;;;;1.01;94.43;97746.75;5085134;28;20572;-56
2022/02/10 22:23:47;;;;;;;31.15;9.63;;;;;;;1.63;93.59;97832.19;5085292;28;20067;-58
2022/02/10 22:26:29;;;;;;;24.60;11.43;;;;;;;0.96;93.34;97716.81;5085076;28;20078;-56
2022/02/10 22:29:03;;;;;;;26.90;10.27;;;;;;;1.56;93.55;97819.69;5085033;28;20048;-54
2022/02/10 22:34:25;;;;;;;20.08;8.70;;;;;;;1.32;94.14;97815.38;5084696;28;20067;-61
2022/02/10 22:36:58;;;;;;;;;;;;;;;1.48;94.43;97817.63;5085281;28;20052;-62
2022/02/10 22:39:27;;;;;;;23.92;9.57;;;;;;;0.65;94.45;97704.66;5084959;28;19924;-55
2022/02/10 22:41:56;;;;;;;37.95;14.70;;;;;;;1.19;94.43;97807.91;5084971;28;20059;-62
2022/02/10 22:44:23;;;;;;;38.58;15.50;;;;;;;1.20;94.22;97799.41;5084459;28;20055;-61
2022/02/10 22:46:49;;;;;;;31.65;14.77;;;;;;;1.32;94.99;97813.47;5084492;28;20506;-56
2022/02/10 22:49:17;;;;;;;34.55;17.73;;;;;;;1.30;94.66;97814.84;5082851;28;20056;-55
2022/02/10 22:51:44;;;;;;;53.13;23.15;;;;;;;1.33;94.98;97808.81;5082746;28;20059;-55
2022/02/10 22:54:13;;;;;;;61.80;26.88;;;;;;;1.34;94.24;97799.53;5083163;28;20439;-61
2022/02/10 22:56:43;;;;;;;73.30;28.05;;;;;;;0.48;94.63;97676.25;5084231;28;20058;-60
2022/02/10 22:59:10;;;;;;;71.03;29.33;;;;;;;1.31;94.71;97800.13;5084917;28;20059;-60
2022/02/10 23:01:38;;;;;;;66.88;27.15;;;;;;;1.26;94.61;97803.75;5102404;28;20052;-56
2022/02/10 23:04:05;;;;;;;65.55;26.88;;;;;;;1.12;94.95;97770.06;5104832;28;20070;-62
2022/02/10 23:06:33;;;;;;;66.30;26.60;;;;;;;1.31;95.27;97781.81;5104996;28;20070;-62
2022/02/10 23:09:00;;;;;;;42.97;20.77;;;;;;;1.37;95.33;97783.41;5103227;28;20063;-58
2022/02/10 23:11:30;;;;;;;50.90;22.67;;;;;;;1.36;94.66;97787.22;5104596;28;20052;-55
2022/02/10 23:13:59;;;;;;;40.65;16.25;;;;;;;1.35;94.75;97785.59;5104499;28;20070;-62
2022/02/10 23:16:27;;;;;;;32.42;12.27;;;;;;;1.37;94.44;97775.22;5104397;28;20074;-55
2022/02/10 23:18:54;;;;;;;23.73;11.38;;;;;;;1.30;94.78;97772.00;5102636;28;20047;-60
2022/02/10 23:21:21;;;;;;;25.70;11.85;;;;;;;0.81;94.72;97683.47;5103982;28;20523;-56
2022/02/10 23:23:50;;;;;;;22.50;10.52;;;;;;;1.07;95.70;97751.06;5103992;28;20051;-60
2022/02/10 23:26:20;;;;;;;28.75;12.10;;;;;;;0.71;95.59;97687.13;5104224;28;20448;-55
2022/02/10 23:28:50;;;;;;;26.35;11.07;;;;;;;1.25;95.03;97765.81;5103901;28;20489;-62
2022/02/10 23:31:20;;;;;;;26.27;10.40;;;;;;;0.68;94.29;97665.13;5104066;28;20054;-55
2022/02/10 23:33:54;;;;;;;27.00;10.18;;;;;;;1.16;94.67;97751.19;5103761;28;20048;-55
2022/02/10 23:39:21;;;;;;;21.45;8.75;;;;;;;0.98;95.93;97752.78;5104259;28;20055;-55
2022/02/10 23:44:28;;;;;;;21.75;8.52;;;;;;;0.87;98.11;97745.81;5103688;28;20051;-60
2022/02/10 23:46:58;;;;;;;18.65;8.27;;;;;;;0.47;98.24;97697.25;5103958;28;20139;-61
2022/02/10 23:49:26;;;;;;;20.08;7.25;;;;;;;0.80;99.04;97736.38;5103525;28;20048;-61
2022/02/10 23:52:05;;;;;;;16.33;6.60;;;;;;;0.87;98.83;97751.28;5104316;28;20056;-56
2022/02/10 23:54:36;;;;;;;18.75;7.15;;;;;;;0.80;99.22;97750.84;5102727;28;20070;-62
2022/02/10 23:57:10;;;;;;;20.25;8.13;;;;;;;0.84;98.58;97757.31;5102446;28;20438;-62
